Seastar — 9HAV9 — position and weather

sailwx.info

Track history (hours):
 
Tides and Currents Weather Stations Pressure Air Temp Water Temp Dewpoint Dewpoint Depression Visibility Wind Speed Wind Dir Waves Ship Positions

Seastar

Last reported at 2017-Dec-17 04:00 UTC. Time now 2017-Dec-17 04:29 UTC.
Position N 44°28' E 037°19'.

Length 250 m; draft 8 m.

Type: Tanker. MMSI: 256702000.

Date/timePositionNaut miles runAvg speedWind from/ knotsBaromVisibWave heightAir tempDewpointWater temp
2017-Dec-17 04:00N 44°28' E 037°19'1 1.2
2017-Dec-17 03:26N 44°28' E 037°20'1 1.6
2017-Dec-17 02:59N 44°28' E 037°21'1 1.5
2017-Dec-17 02:30N 44°27' E 037°22'1 1.6
2017-Dec-17 02:00N 44°27' E 037°23'1 1.5
2017-Dec-17 01:28N 44°27' E 037°24'1 1.4
2017-Dec-17 01:00N 44°26' E 037°25'1 1.4
2017-Dec-17 00:30N 44°26' E 037°26'1 1.4
2017-Dec-16 23:57N 44°26' E 037°27'1 1.4
2017-Dec-16 23:28N 44°26' E 037°27'1 1.3
2017-Dec-16 23:00N 44°25' E 037°28'1 1.2
2017-Dec-16 22:29N 44°25' E 037°29'1 1.2
2017-Dec-16 22:00N 44°25' E 037°30'1 1.2
2017-Dec-16 21:29N 44°25' E 037°31'1 1.0
2017-Dec-16 20:59N 44°25' E 037°31'1 1.0
2017-Dec-16 20:30N 44°24' E 037°32'0 0.9
2017-Dec-16 20:00N 44°24' E 037°33'0 0.9
2017-Dec-16 19:28N 44°24' E 037°33'1 0.9
2017-Dec-16 18:45N 44°24' E 037°34'0 0.9
2017-Dec-16 18:22N 44°24' E 037°34'0 0.9
2017-Dec-16 17:59N 44°23' E 037°35'2 1.2
2017-Dec-16 16:32N 44°22' E 037°37'0 1.3
2017-Dec-16 16:29N 44°22' E 037°37'1 1.3
2017-Dec-16 15:47N 44°22' E 037°38'0 1.3
2017-Dec-16 15:30N 44°21' E 037°38'1 1.5
2017-Dec-16 14:52N 44°21' E 037°39'1 1.5
2017-Dec-16 14:29N 44°21' E 037°40'1 2.9
2017-Dec-16 13:58N 44°22' E 037°41'2 4.8
2017-Dec-16 13:30N 44°24' E 037°41'2 4.4
2017-Dec-16 13:00N 44°27' E 037°42'1 1.1
2017-Dec-16 12:30N 44°26' E 037°42'1 2.0
2017-Dec-16 12:00N 44°25' E 037°42'1 2.1
2017-Dec-16 11:30N 44°24' E 037°43'1 2.1
2017-Dec-16 11:00N 44°23' E 037°43'1 2.3
2017-Dec-16 10:30N 44°22' E 037°43'2 3.2
2017-Dec-16 10:00N 44°22' E 037°41'2 4.5
2017-Dec-16 09:30N 44°22' E 037°38'2 4.6
2017-Dec-16 09:00N 44°21' E 037°35'2 4.7
2017-Dec-16 08:30N 44°21' E 037°32'2 4.9
2017-Dec-16 08:00N 44°21' E 037°28'2 4.8
2017-Dec-16 07:30N 44°20' E 037°25'1 1.0
2017-Dec-16 06:57N 44°21' E 037°24'1 1.4
2017-Dec-16 06:29N 44°21' E 037°25'1 1.3
2017-Dec-16 06:00N 44°21' E 037°26'1 1.5
2017-Dec-16 05:29N 44°21' E 037°27'1 1.4
2017-Dec-16 05:00N 44°21' E 037°28'1 1.5
2017-Dec-16 04:14N 44°21' E 037°30'0 1.6
2017-Dec-16 04:00N 44°21' E 037°30'1 1.6
2017-Dec-16 03:29N 44°21' E 037°31'1 1.6
2017-Dec-16 02:58N 44°21' E 037°32'1 1.5
2017-Dec-16 02:25N 44°21' E 037°34'1 1.4
2017-Dec-16 02:00N 44°21' E 037°34'1 1.5
2017-Dec-16 01:25N 44°20' E 037°36'1 1.4
2017-Dec-16 00:45N 44°20' E 037°37'1 1.4
2017-Dec-16 00:21N 44°20' E 037°37'1 1.2
2017-Dec-15 23:51N 44°20' E 037°38'1 1.1
2017-Dec-15 23:09N 44°19' E 037°39'8 4.7
2017-Dec-15 21:30N 44°24' E 037°31'3 5.3
2017-Dec-15 21:00N 44°26' E 037°28'3 5.2
2017-Dec-15 20:29N 44°27' E 037°25'2 4.3
2017-Dec-15 20:00N 44°29' E 037°23'1 1.2
2017-Dec-15 19:30N 44°29' E 037°24'1 1.3
2017-Dec-15 18:54N 44°28' E 037°25'6 1.1
2017-Dec-15 13:31N 44°25' E 037°31'0 1.3
2017-Dec-15 13:30N 44°25' E 037°31'0 0.7
2017-Dec-15 12:52N 44°25' E 037°32'0 0.7
2017-Dec-15 12:21N 44°24' E 037°32'5 1.0
2017-Dec-15 07:30N 44°20' E 037°36'2 1.4
2017-Dec-15 06:07N 44°20' E 037°38'0 1.5
2017-Dec-15 06:00N 44°20' E 037°38'4 4.3
2017-Dec-15 05:03N 44°24' E 037°38'0 4.4
2017-Dec-15 05:00N 44°24' E 037°38'2 4.8
2017-Dec-15 04:30N 44°27' E 037°39'1829.2
2017-Dec-15 03:54N 44°35' E 038°01'1913.9
2017-Dec-15 02:30N 44°24' E 037°39'2 1.0
2017-Dec-15 00:59N 44°23' E 037°39'0 0.8
2017-Dec-15 00:30N 44°22' E 037°39'7 1.1
2017-Dec-14 18:20N 44°25' E 037°30'3 8.0
2017-Dec-14 17:59N 44°26' E 037°27'4 7.7
2017-Dec-14 17:30N 44°28' E 037°22'2 3.3
2017-Dec-14 16:58N 44°29' E 037°21'1 1.2
2017-Dec-14 16:28N 44°29' E 037°22'0 1.1
2017-Dec-14 16:00N 44°29' E 037°22'1 1.1
2017-Dec-14 15:00N 44°28' E 037°24'1 1.3
2017-Dec-14 14:30N 44°28' E 037°24'1 1.3
2017-Dec-14 13:59N 44°28' E 037°25'1 1.3
2017-Dec-14 13:28N 44°28' E 037°26'1 1.2
2017-Dec-14 13:00N 44°28' E 037°27'1 1.2
2017-Dec-14 12:30N 44°27' E 037°28'1 1.1
2017-Dec-14 12:00N 44°27' E 037°28'1 1.0
2017-Dec-14 11:30N 44°27' E 037°29'0 0.9
2017-Dec-14 11:00N 44°27' E 037°30'0 1.0
2017-Dec-14 10:30N 44°26' E 037°30'0 0.9
2017-Dec-14 10:00N 44°26' E 037°31'0 0.9
2017-Dec-14 09:29N 44°26' E 037°31'0 0.9
2017-Dec-14 08:59N 44°26' E 037°32'0 0.9
2017-Dec-14 08:30N 44°25' E 037°33'0 0.9
2017-Dec-14 08:00N 44°25' E 037°33'0 0.9
2017-Dec-14 07:30N 44°25' E 037°33'0 0.8
2017-Dec-14 06:58N 44°24' E 037°34'0 0.7
2017-Dec-14 06:22N 44°24' E 037°34'0 0.8
2017-Dec-14 05:59N 44°24' E 037°34'1 0.8
2017-Dec-14 04:54N 44°23' E 037°35'1 1.0
2017-Dec-14 03:24N 44°22' E 037°36'2 1.0
2017-Dec-14 01:26N 44°20' E 037°37'1 0.9
2017-Dec-13 23:57N 44°20' E 037°39'1 1.2
2017-Dec-13 23:28N 44°19' E 037°40'1 2.0
2017-Dec-13 22:54N 44°20' E 037°41'2 4.9
2017-Dec-13 22:30N 44°21' E 037°43'1 2.4
2017-Dec-13 22:00N 44°23' E 037°44'0 0.5
2017-Dec-13 21:28N 44°22' E 037°44'0 0.6
2017-Dec-13 21:00N 44°22' E 037°44'0 0.5
2017-Dec-13 20:30N 44°22' E 037°44'0 0.4
2017-Dec-13 20:00N 44°22' E 037°45'0 0.2
2017-Dec-13 18:50N 44°22' E 037°45'1 0.4
2017-Dec-13 17:35N 44°21' E 037°44'0 0.4
2017-Dec-13 17:29N 44°21' E 037°44'0 0.4
2017-Dec-13 16:40N 44°21' E 037°44'0 0.6
2017-Dec-13 16:28N 44°21' E 037°43'1 0.6
2017-Dec-13 15:13N 44°20' E 037°43'0 0.7
2017-Dec-13 15:00N 44°20' E 037°43'0 0.6
2017-Dec-13 14:30N 44°20' E 037°43'0 0.5
2017-Dec-13 14:00N 44°20' E 037°43'0 0.5
2017-Dec-13 13:30N 44°19' E 037°42'1 1.3
2017-Dec-13 12:59N 44°20' E 037°41'2 4.3
2017-Dec-13 12:30N 44°21' E 037°39'3 5.3
2017-Dec-13 12:00N 44°23' E 037°36'3 5.2
2017-Dec-13 11:23N 44°24' E 037°33'2 5.0
2017-Dec-13 10:57N 44°26' E 037°30'3 4.6
2017-Dec-13 10:18N 44°28' E 037°28'0 1.0
2017-Dec-13 10:00N 44°28' E 037°28'0 0.9
2017-Dec-13 09:30N 44°28' E 037°29'0 1.0
2017-Dec-13 09:00N 44°28' E 037°29'1 1.1
2017-Dec-13 08:30N 44°27' E 037°30'1 1.3
2017-Dec-13 08:00N 44°27' E 037°30'1 1.3
2017-Dec-13 07:30N 44°26' E 037°31'1 1.3
2017-Dec-13 07:00N 44°26' E 037°32'1 1.3
2017-Dec-13 06:29N 44°26' E 037°33'1 1.3
2017-Dec-13 06:00N 44°25' E 037°33'1 1.2
2017-Dec-13 05:30N 44°25' E 037°34'2 1.1
2017-Dec-13 03:25N 44°23' E 037°37'0 0.9
2017-Dec-13 03:00N 44°23' E 037°37'0 0.9
2017-Dec-13 02:30N 44°23' E 037°37'1 0.8
2017-Dec-13 00:50N 44°22' E 037°38'0 1.1
2017-Dec-13 00:30N 44°21' E 037°39'1 1.9
2017-Dec-13 00:00N 44°21' E 037°38'3 4.9
2017-Dec-12 23:18N 44°22' E 037°33'2 5.6
2017-Dec-12 22:57N 44°23' E 037°31'3 5.6
2017-Dec-12 22:22N 44°24' E 037°27'2 5.3
2017-Dec-12 22:00N 44°25' E 037°25'3 5.1
2017-Dec-12 21:25N 44°28' E 037°22'2 3.6
2017-Dec-12 20:58N 44°29' E 037°22'1 1.5
2017-Dec-12 20:12N 44°29' E 037°23'0 1.4
2017-Dec-12 19:59N 44°28' E 037°23'1 1.4
2017-Dec-12 19:24N 44°28' E 037°24'1 1.4
2017-Dec-12 18:56N 44°27' E 037°24'1 1.4
2017-Dec-12 18:30N 44°27' E 037°25'1 1.4
2017-Dec-12 17:59N 44°26' E 037°25'1 1.5
2017-Dec-12 17:26N 44°25' E 037°26'1 1.6
2017-Dec-12 16:59N 44°25' E 037°26'1 1.6
2017-Dec-12 16:24N 44°24' E 037°27'2 1.6
2017-Dec-12 14:57N 44°22' E 037°29'1 1.6
2017-Dec-12 14:16N 44°22' E 037°30'1 1.7
2017-Dec-12 13:53N 44°21' E 037°31'1 1.6
2017-Dec-12 13:30N 44°21' E 037°32'1 1.6
2017-Dec-12 12:59N 44°20' E 037°33'1 1.6
2017-Dec-12 12:29N 44°20' E 037°33'1 1.6
2017-Dec-12 11:57N 44°19' E 037°35'1 1.9
2017-Dec-12 11:30N 44°20' E 037°36'2 4.4
2017-Dec-12 11:00N 44°22' E 037°37'2 4.3
2017-Dec-12 10:30N 44°24' E 037°38'2 4.0
2017-Dec-12 10:00N 44°26' E 037°39'1 2.7
2017-Dec-12 09:30N 44°27' E 037°40'1 1.9
2017-Dec-12 09:00N 44°26' E 037°39'1 1.6
2017-Dec-12 08:30N 44°25' E 037°39'1 1.6
2017-Dec-12 08:00N 44°25' E 037°39'1 1.7
2017-Dec-12 07:30N 44°24' E 037°38'1 1.8
2017-Dec-12 07:00N 44°23' E 037°38'1 2.0
2017-Dec-12 06:29N 44°22' E 037°37'2 3.4
2017-Dec-12 06:00N 44°22' E 037°34'3 5.5
2017-Dec-12 05:26N 44°25' E 037°32'4 6.0
2017-Dec-12 04:49N 44°28' E 037°29'1 2.4
2017-Dec-12 04:30N 44°28' E 037°30'3 2.1
2017-Dec-12 02:56N 44°25' E 037°32'1 2.1
2017-Dec-12 02:18N 44°24' E 037°33'1 2.0
2017-Dec-12 01:57N 44°23' E 037°33'2 2.2
2017-Dec-12 01:03N 44°21' E 037°34'0 2.1
2017-Dec-12 00:50N 44°21' E 037°35'1 3.2
2017-Dec-12 00:26N 44°22' E 037°36'1 3.2
2017-Dec-12 00:00N 44°23' E 037°37'2 3.0
2017-Dec-11 23:30N 44°25' E 037°39'1 3.0
2017-Dec-11 23:00N 44°26' E 037°40'1 2.0
2017-Dec-11 22:29N 44°27' E 037°40'1 2.5
2017-Dec-11 22:00N 44°26' E 037°39'1 2.4
2017-Dec-11 21:30N 44°25' E 037°39'1 2.3
2017-Dec-11 21:00N 44°24' E 037°38'1 2.3
2017-Dec-11 20:30N 44°23' E 037°37'1 1.4
2017-Dec-11 19:52N 44°22' E 037°36'2 5.5
2017-Dec-11 19:30N 44°24' E 037°35'3 5.8
2017-Dec-11 19:00N 44°27' E 037°34'1 1.6
2017-Dec-11 18:29N 44°27' E 037°35'1 1.9
2017-Dec-11 17:48N 44°26' E 037°35'1 1.9
2017-Dec-11 17:27N 44°25' E 037°36'1 1.9
2017-Dec-11 16:48N 44°24' E 037°36'1 1.8
2017-Dec-11 16:24N 44°23' E 037°36'1 1.3
2017-Dec-11 15:41N 44°22' E 037°36'1 0.6
2017-Dec-11 13:53N 44°21' E 037°37'2 3.8
2017-Dec-11 13:26N 44°22' E 037°39'3 4.0
2017-Dec-11 12:45N 44°24' E 037°40'1 3.9
2017-Dec-11 12:30N 44°25' E 037°41'2 3.1
2017-Dec-11 12:00N 44°27' E 037°42'1 1.8
2017-Dec-11 11:30N 44°26' E 037°43'1 1.7
2017-Dec-11 11:00N 44°25' E 037°42'1 1.9
2017-Dec-11 10:30N 44°24' E 037°41'1 1.8
2017-Dec-11 10:00N 44°23' E 037°40'1 1.8
2017-Dec-11 09:27N 44°23' E 037°40'1 1.4
2017-Dec-11 08:56N 44°22' E 037°39'2 4.1
2017-Dec-11 08:30N 44°22' E 037°42'3 6.7
2017-Dec-11 08:00N 44°22' E 037°46'4 3.4
2017-Dec-11 06:43N 44°21' E 037°52'0 1.7
2017-Dec-11 06:30N 44°21' E 037°52'2 1.4
2017-Dec-11 04:58N 44°20' E 037°49'1 1.6
2017-Dec-11 04:29N 44°20' E 037°48'1 1.9
2017-Dec-11 03:53N 44°21' E 037°46'1 1.9
2017-Dec-11 03:24N 44°21' E 037°45'1 2.5
2017-Dec-11 02:57N 44°21' E 037°44'3 5.2
2017-Dec-11 02:28N 44°21' E 037°40'1 3.2
2017-Dec-11 02:00N 44°22' E 037°39'3 3.2
2017-Dec-11 01:12N 44°23' E 037°42'1 4.4
2017-Dec-11 00:54N 44°22' E 037°44'2 4.4
2017-Dec-11 00:29N 44°21' E 037°46'2 3.5
2017-Dec-11 00:00N 44°20' E 037°48'1 1.1
2017-Dec-10 23:30N 44°20' E 037°48'1 2.4
2017-Dec-10 23:00N 44°21' E 037°47'1 2.3
2017-Dec-10 22:29N 44°21' E 037°45'1 2.3
2017-Dec-10 22:00N 44°22' E 037°44'1 2.1
2017-Dec-10 21:30N 44°22' E 037°42'1 1.9
2017-Dec-10 21:00N 44°22' E 037°41'2 1.7
2017-Dec-10 19:58N 44°22' E 037°39'1 1.4
2017-Dec-10 18:55N 44°22' E 037°37'1 2.7
2017-Dec-10 18:29N 44°22' E 037°35'6 7.4
2017-Dec-10 17:42N 44°24' E 037°27'6 6.7
2017-Dec-10 16:46N 44°27' E 037°20'2 5.8
2017-Dec-10 16:30N 44°27' E 037°18'3 1.2
2017-Dec-10 13:54N 44°26' E 037°22'1 2.4
2017-Dec-10 13:20N 44°25' E 037°23'1 2.3
2017-Dec-10 12:53N 44°25' E 037°24'1 2.2
2017-Dec-10 12:29N 44°25' E 037°26'1 2.3
2017-Dec-10 11:58N 44°24' E 037°27'2 2.2
2017-Dec-10 10:54N 44°23' E 037°30'1 2.2
2017-Dec-10 10:26N 44°23' E 037°32'1 2.1
2017-Dec-10 10:00N 44°22' E 037°33'1 2.1
2017-Dec-10 09:30N 44°22' E 037°34'1 2.0
2017-Dec-10 09:00N 44°22' E 037°35'1 1.9
2017-Dec-10 08:26N 44°21' E 037°37'1 2.3
2017-Dec-10 08:00N 44°22' E 037°37'3 2.1
2017-Dec-10 06:29N 44°25' E 037°40'1 2.0
2017-Dec-10 06:00N 44°24' E 037°39'1 2.0
2017-Dec-10 05:30N 44°23' E 037°39'1 1.9
2017-Dec-10 05:00N 44°22' E 037°38'1 1.9
2017-Dec-10 04:30N 44°21' E 037°38'1 1.5
2017-Dec-10 04:00N 44°21' E 037°37'3 5.6
2017-Dec-10 03:30N 44°23' E 037°34'3 6.6
2017-Dec-10 02:59N 44°27' E 037°33'1 2.3
2017-Dec-10 02:30N 44°27' E 037°32'1 2.0
2017-Dec-10 02:00N 44°26' E 037°31'1 2.0
2017-Dec-10 01:30N 44°25' E 037°31'1 2.0
2017-Dec-10 01:00N 44°24' E 037°30'1 1.9
2017-Dec-10 00:21N 44°23' E 037°30'1 1.8
2017-Dec-09 23:59N 44°22' E 037°30'1 1.7
2017-Dec-09 23:30N 44°22' E 037°30'1 1.6
2017-Dec-09 23:00N 44°21' E 037°29'4 0.4
2017-Dec-09 13:54N 44°24' E 037°27'1 1.6
2017-Dec-09 13:30N 44°23' E 037°27'1 1.7
2017-Dec-09 12:53N 44°22' E 037°28'1 1.7
2017-Dec-09 12:28N 44°22' E 037°28'1 1.8
2017-Dec-09 12:00N 44°21' E 037°29'0 0.8
2017-Dec-09 11:30N 44°21' E 037°30'2 4.8
2017-Dec-09 11:00N 44°23' E 037°30'2 4.6
2017-Dec-09 10:30N 44°26' E 037°30'2 3.1
2017-Dec-09 10:00N 44°27' E 037°30'1 2.1
2017-Dec-09 09:30N 44°28' E 037°31'1 1.9
2017-Dec-09 08:54N 44°27' E 037°32'1 2.0
2017-Dec-09 08:30N 44°26' E 037°32'1 2.0
2017-Dec-09 08:00N 44°25' E 037°33'1 2.0
2017-Dec-09 07:27N 44°25' E 037°34'4 5.2
2017-Dec-09 06:41N 44°27' E 037°39'1 2.4
2017-Dec-09 06:28N 44°27' E 037°39'1 1.6
2017-Dec-09 06:00N 44°26' E 037°38'1 2.4
2017-Dec-09 05:30N 44°27' E 037°37'0 0.9
2017-Dec-09 04:57N 44°27' E 037°37'1 1.5
2017-Dec-09 04:30N 44°26' E 037°37'1 1.5
2017-Dec-09 04:00N 44°26' E 037°37'1 1.5
2017-Dec-09 03:27N 44°25' E 037°37'1 3.1
2017-Dec-09 03:00N 44°23' E 037°38'3 6.2
2017-Dec-09 02:30N 44°21' E 037°40'3 5.1
2017-Dec-09 01:58N 44°19' E 037°43'2 5.0
2017-Dec-09 01:30N 44°18' E 037°46'2 4.9
2017-Dec-09 01:00N 44°17' E 037°49'3 4.9
2017-Dec-09 00:29N 44°16' E 037°53'3 4.9
2017-Dec-08 23:58N 44°15' E 037°56'2 5.0
2017-Dec-08 23:30N 44°15' E 037°59'1 2.3
2017-Dec-08 22:56N 44°15' E 038°01'4 1.9
2017-Dec-08 20:36N 44°16' E 037°55'0 2.0
2017-Dec-08 20:26N 44°16' E 037°54'1 2.0
2017-Dec-08 19:59N 44°16' E 037°53'1 2.1
2017-Dec-08 19:30N 44°17' E 037°52'2 2.2
2017-Dec-08 18:48N 44°17' E 037°50'1 2.3
2017-Dec-08 18:29N 44°18' E 037°49'1 2.3
2017-Dec-08 17:52N 44°18' E 037°47'1 2.1
2017-Dec-08 17:21N 44°18' E 037°45'1 2.1
2017-Dec-08 17:00N 44°19' E 037°45'1 2.1
2017-Dec-08 16:30N 44°19' E 037°43'4 2.1
2017-Dec-08 14:34N 44°20' E 037°38'0 2.1
2017-Dec-08 14:26N 44°20' E 037°37'2 1.5
2017-Dec-08 13:21N 44°20' E 037°40'2 3.8
2017-Dec-08 12:53N 44°19' E 037°41'1 3.7
2017-Dec-08 12:30N 44°17' E 037°43'2 4.1
2017-Dec-08 11:59N 44°16' E 037°45'2 4.3
2017-Dec-08 11:30N 44°14' E 037°46'2 4.3
2017-Dec-08 11:00N 44°13' E 037°48'2 4.5
2017-Dec-08 10:30N 44°11' E 037°50'11 1.0
2017-Dec-07 23:00N 44°20' E 037°41'2 1.5
2017-Dec-07 21:57N 44°21' E 037°42'3 6.0
2017-Dec-07 21:30N 44°22' E 037°45'3 5.5
2017-Dec-07 20:56N 44°23' E 037°50'1 2.2
2017-Dec-07 20:30N 44°22' E 037°49'1 2.1
2017-Dec-07 20:00N 44°22' E 037°47'1 2.1
2017-Dec-07 19:31N 44°22' E 037°46'1 1.7
2017-Dec-07 19:00N 44°22' E 037°45'1 2.1
2017-Dec-07 18:30N 44°22' E 037°43'1 1.9
2017-Dec-07 17:59N 44°21' E 037°42'1 2.0
2017-Dec-07 17:30N 44°21' E 037°40'1 1.9
2017-Dec-07 17:00N 44°21' E 037°39'0 0.4
2017-Dec-07 16:26N 44°21' E 037°39'2 5.7
2017-Dec-07 16:00N 44°20' E 037°42'3 5.7
2017-Dec-07 15:30N 44°18' E 037°44'3 5.5
2017-Dec-07 15:00N 44°16' E 037°47'3 5.2
2017-Dec-07 14:29N 44°14' E 037°50'3 4.8
2017-Dec-07 13:57N 44°12' E 037°52'2 4.8
2017-Dec-07 13:30N 44°11' E 037°55'2 4.6
2017-Dec-07 13:00N 44°09' E 037°56'3 0.6
2017-Dec-07 08:05N 44°10' E 037°53'0 1.7
2017-Dec-07 07:57N 44°10' E 037°53'1 1.7
2017-Dec-07 07:28N 44°11' E 037°52'1 1.6
2017-Dec-07 06:56N 44°12' E 037°52'1 1.4
2017-Dec-07 06:28N 44°12' E 037°51'1 1.5
2017-Dec-07 06:00N 44°13' E 037°50'  
Track history (hours):
 
Tides and Currents Weather Stations Pressure Air Temp Water Temp Dewpoint Dewpoint Depression Visibility Wind Speed Wind Dir Waves Ship Positions

Seastar

Last reported at 2017-Dec-17 04:00 UTC. Time now 2017-Dec-17 04:29 UTC.
Position N 44°28' E 037°19'.

Length 250 m; draft 8 m.

Type: Tanker. MMSI: 256702000.

Date/timePositionNaut miles runAvg speedWind from/ knotsBaromVisibWave heightAir tempDewpointWater temp
2017-Dec-17 04:00N 44°28' E 037°19'1 1.2
2017-Dec-17 03:26N 44°28' E 037°20'1 1.6
2017-Dec-17 02:59N 44°28' E 037°21'1 1.5
2017-Dec-17 02:30N 44°27' E 037°22'1 1.6
2017-Dec-17 02:00N 44°27' E 037°23'1 1.5
2017-Dec-17 01:28N 44°27' E 037°24'1 1.4
2017-Dec-17 01:00N 44°26' E 037°25'1 1.4
2017-Dec-17 00:30N 44°26' E 037°26'1 1.4
2017-Dec-16 23:57N 44°26' E 037°27'1 1.4
2017-Dec-16 23:28N 44°26' E 037°27'1 1.3
2017-Dec-16 23:00N 44°25' E 037°28'1 1.2
2017-Dec-16 22:29N 44°25' E 037°29'1 1.2
2017-Dec-16 22:00N 44°25' E 037°30'1 1.2
2017-Dec-16 21:29N 44°25' E 037°31'1 1.0
2017-Dec-16 20:59N 44°25' E 037°31'1 1.0
2017-Dec-16 20:30N 44°24' E 037°32'0 0.9
2017-Dec-16 20:00N 44°24' E 037°33'0 0.9
2017-Dec-16 19:28N 44°24' E 037°33'1 0.9
2017-Dec-16 18:45N 44°24' E 037°34'0 0.9
2017-Dec-16 18:22N 44°24' E 037°34'0 0.9
2017-Dec-16 17:59N 44°23' E 037°35'2 1.2
2017-Dec-16 16:32N 44°22' E 037°37'0 1.3
2017-Dec-16 16:29N 44°22' E 037°37'1 1.3
2017-Dec-16 15:47N 44°22' E 037°38'0 1.3
2017-Dec-16 15:30N 44°21' E 037°38'1 1.5
2017-Dec-16 14:52N 44°21' E 037°39'1 1.5
2017-Dec-16 14:29N 44°21' E 037°40'1 2.9
2017-Dec-16 13:58N 44°22' E 037°41'2 4.8
2017-Dec-16 13:30N 44°24' E 037°41'2 4.4
2017-Dec-16 13:00N 44°27' E 037°42'1 1.1
2017-Dec-16 12:30N 44°26' E 037°42'1 2.0
2017-Dec-16 12:00N 44°25' E 037°42'1 2.1
2017-Dec-16 11:30N 44°24' E 037°43'1 2.1
2017-Dec-16 11:00N 44°23' E 037°43'1 2.3
2017-Dec-16 10:30N 44°22' E 037°43'2 3.2
2017-Dec-16 10:00N 44°22' E 037°41'2 4.5
2017-Dec-16 09:30N 44°22' E 037°38'2 4.6
2017-Dec-16 09:00N 44°21' E 037°35'2 4.7
2017-Dec-16 08:30N 44°21' E 037°32'2 4.9
2017-Dec-16 08:00N 44°21' E 037°28'2 4.8
2017-Dec-16 07:30N 44°20' E 037°25'1 1.0
2017-Dec-16 06:57N 44°21' E 037°24'1 1.4
2017-Dec-16 06:29N 44°21' E 037°25'1 1.3
2017-Dec-16 06:00N 44°21' E 037°26'1 1.5
2017-Dec-16 05:29N 44°21' E 037°27'1 1.4
2017-Dec-16 05:00N 44°21' E 037°28'1 1.5
2017-Dec-16 04:14N 44°21' E 037°30'0 1.6
2017-Dec-16 04:00N 44°21' E 037°30'1 1.6
2017-Dec-16 03:29N 44°21' E 037°31'1 1.6
2017-Dec-16 02:58N 44°21' E 037°32'1 1.5
2017-Dec-16 02:25N 44°21' E 037°34'1 1.4
2017-Dec-16 02:00N 44°21' E 037°34'1 1.5
2017-Dec-16 01:25N 44°20' E 037°36'1 1.4
2017-Dec-16 00:45N 44°20' E 037°37'1 1.4
2017-Dec-16 00:21N 44°20' E 037°37'1 1.2
2017-Dec-15 23:51N 44°20' E 037°38'1 1.1
2017-Dec-15 23:09N 44°19' E 037°39'8 4.7
2017-Dec-15 21:30N 44°24' E 037°31'3 5.3
2017-Dec-15 21:00N 44°26' E 037°28'3 5.2
2017-Dec-15 20:29N 44°27' E 037°25'2 4.3
2017-Dec-15 20:00N 44°29' E 037°23'1 1.2
2017-Dec-15 19:30N 44°29' E 037°24'1 1.3
2017-Dec-15 18:54N 44°28' E 037°25'6 1.1
2017-Dec-15 13:31N 44°25' E 037°31'0 1.3
2017-Dec-15 13:30N 44°25' E 037°31'0 0.7
2017-Dec-15 12:52N 44°25' E 037°32'0 0.7
2017-Dec-15 12:21N 44°24' E 037°32'5 1.0
2017-Dec-15 07:30N 44°20' E 037°36'2 1.4
2017-Dec-15 06:07N 44°20' E 037°38'0 1.5
2017-Dec-15 06:00N 44°20' E 037°38'4 4.3
2017-Dec-15 05:03N 44°24' E 037°38'0 4.4
2017-Dec-15 05:00N 44°24' E 037°38'2 4.8
2017-Dec-15 04:30N 44°27' E 037°39'1829.2
2017-Dec-15 03:54N 44°35' E 038°01'1913.9
2017-Dec-15 02:30N 44°24' E 037°39'2 1.0
2017-Dec-15 00:59N 44°23' E 037°39'0 0.8
2017-Dec-15 00:30N 44°22' E 037°39'7 1.1
2017-Dec-14 18:20N 44°25' E 037°30'3 8.0
2017-Dec-14 17:59N 44°26' E 037°27'4 7.7
2017-Dec-14 17:30N 44°28' E 037°22'2 3.3
2017-Dec-14 16:58N 44°29' E 037°21'1 1.2
2017-Dec-14 16:28N 44°29' E 037°22'0 1.1
2017-Dec-14 16:00N 44°29' E 037°22'1 1.1
2017-Dec-14 15:00N 44°28' E 037°24'1 1.3
2017-Dec-14 14:30N 44°28' E 037°24'1 1.3
2017-Dec-14 13:59N 44°28' E 037°25'1 1.3
2017-Dec-14 13:28N 44°28' E 037°26'1 1.2
2017-Dec-14 13:00N 44°28' E 037°27'1 1.2
2017-Dec-14 12:30N 44°27' E 037°28'1 1.1
2017-Dec-14 12:00N 44°27' E 037°28'1 1.0
2017-Dec-14 11:30N 44°27' E 037°29'0 0.9
2017-Dec-14 11:00N 44°27' E 037°30'0 1.0
2017-Dec-14 10:30N 44°26' E 037°30'0 0.9
2017-Dec-14 10:00N 44°26' E 037°31'0 0.9
2017-Dec-14 09:29N 44°26' E 037°31'0 0.9
2017-Dec-14 08:59N 44°26' E 037°32'0 0.9
2017-Dec-14 08:30N 44°25' E 037°33'0 0.9
2017-Dec-14 08:00N 44°25' E 037°33'0 0.9
2017-Dec-14 07:30N 44°25' E 037°33'0 0.8
2017-Dec-14 06:58N 44°24' E 037°34'0 0.7
2017-Dec-14 06:22N 44°24' E 037°34'0 0.8
2017-Dec-14 05:59N 44°24' E 037°34'1 0.8
2017-Dec-14 04:54N 44°23' E 037°35'1 1.0
2017-Dec-14 03:24N 44°22' E 037°36'2 1.0
2017-Dec-14 01:26N 44°20' E 037°37'1 0.9
2017-Dec-13 23:57N 44°20' E 037°39'1 1.2
2017-Dec-13 23:28N 44°19' E 037°40'1 2.0
2017-Dec-13 22:54N 44°20' E 037°41'2 4.9
2017-Dec-13 22:30N 44°21' E 037°43'1 2.4
2017-Dec-13 22:00N 44°23' E 037°44'0 0.5
2017-Dec-13 21:28N 44°22' E 037°44'0 0.6
2017-Dec-13 21:00N 44°22' E 037°44'0 0.5
2017-Dec-13 20:30N 44°22' E 037°44'0 0.4
2017-Dec-13 20:00N 44°22' E 037°45'0 0.2
2017-Dec-13 18:50N 44°22' E 037°45'1 0.4
2017-Dec-13 17:35N 44°21' E 037°44'0 0.4
2017-Dec-13 17:29N 44°21' E 037°44'0 0.4
2017-Dec-13 16:40N 44°21' E 037°44'0 0.6
2017-Dec-13 16:28N 44°21' E 037°43'1 0.6
2017-Dec-13 15:13N 44°20' E 037°43'0 0.7
2017-Dec-13 15:00N 44°20' E 037°43'0 0.6
2017-Dec-13 14:30N 44°20' E 037°43'0 0.5
2017-Dec-13 14:00N 44°20' E 037°43'0 0.5
2017-Dec-13 13:30N 44°19' E 037°42'1 1.3
2017-Dec-13 12:59N 44°20' E 037°41'2 4.3
2017-Dec-13 12:30N 44°21' E 037°39'3 5.3
2017-Dec-13 12:00N 44°23' E 037°36'3 5.2
2017-Dec-13 11:23N 44°24' E 037°33'2 5.0
2017-Dec-13 10:57N 44°26' E 037°30'3 4.6
2017-Dec-13 10:18N 44°28' E 037°28'0 1.0
2017-Dec-13 10:00N 44°28' E 037°28'0 0.9
2017-Dec-13 09:30N 44°28' E 037°29'0 1.0
2017-Dec-13 09:00N 44°28' E 037°29'1 1.1
2017-Dec-13 08:30N 44°27' E 037°30'1 1.3
2017-Dec-13 08:00N 44°27' E 037°30'1 1.3
2017-Dec-13 07:30N 44°26' E 037°31'1 1.3
2017-Dec-13 07:00N 44°26' E 037°32'1 1.3
2017-Dec-13 06:29N 44°26' E 037°33'1 1.3
2017-Dec-13 06:00N 44°25' E 037°33'1 1.2
2017-Dec-13 05:30N 44°25' E 037°34'2 1.1
2017-Dec-13 03:25N 44°23' E 037°37'0 0.9
2017-Dec-13 03:00N 44°23' E 037°37'0 0.9
2017-Dec-13 02:30N 44°23' E 037°37'1 0.8
2017-Dec-13 00:50N 44°22' E 037°38'0 1.1
2017-Dec-13 00:30N 44°21' E 037°39'1 1.9
2017-Dec-13 00:00N 44°21' E 037°38'3 4.9
2017-Dec-12 23:18N 44°22' E 037°33'2 5.6
2017-Dec-12 22:57N 44°23' E 037°31'3 5.6
2017-Dec-12 22:22N 44°24' E 037°27'2 5.3
2017-Dec-12 22:00N 44°25' E 037°25'3 5.1
2017-Dec-12 21:25N 44°28' E 037°22'2 3.6
2017-Dec-12 20:58N 44°29' E 037°22'1 1.5
2017-Dec-12 20:12N 44°29' E 037°23'0 1.4
2017-Dec-12 19:59N 44°28' E 037°23'1 1.4
2017-Dec-12 19:24N 44°28' E 037°24'1 1.4
2017-Dec-12 18:56N 44°27' E 037°24'1 1.4
2017-Dec-12 18:30N 44°27' E 037°25'1 1.4
2017-Dec-12 17:59N 44°26' E 037°25'1 1.5
2017-Dec-12 17:26N 44°25' E 037°26'1 1.6
2017-Dec-12 16:59N 44°25' E 037°26'1 1.6
2017-Dec-12 16:24N 44°24' E 037°27'2 1.6
2017-Dec-12 14:57N 44°22' E 037°29'1 1.6
2017-Dec-12 14:16N 44°22' E 037°30'1 1.7
2017-Dec-12 13:53N 44°21' E 037°31'1 1.6
2017-Dec-12 13:30N 44°21' E 037°32'1 1.6
2017-Dec-12 12:59N 44°20' E 037°33'1 1.6
2017-Dec-12 12:29N 44°20' E 037°33'1 1.6
2017-Dec-12 11:57N 44°19' E 037°35'1 1.9
2017-Dec-12 11:30N 44°20' E 037°36'2 4.4
2017-Dec-12 11:00N 44°22' E 037°37'2 4.3
2017-Dec-12 10:30N 44°24' E 037°38'2 4.0
2017-Dec-12 10:00N 44°26' E 037°39'1 2.7
2017-Dec-12 09:30N 44°27' E 037°40'1 1.9
2017-Dec-12 09:00N 44°26' E 037°39'1 1.6
2017-Dec-12 08:30N 44°25' E 037°39'1 1.6
2017-Dec-12 08:00N 44°25' E 037°39'1 1.7
2017-Dec-12 07:30N 44°24' E 037°38'1 1.8
2017-Dec-12 07:00N 44°23' E 037°38'1 2.0
2017-Dec-12 06:29N 44°22' E 037°37'2 3.4
2017-Dec-12 06:00N 44°22' E 037°34'3 5.5
2017-Dec-12 05:26N 44°25' E 037°32'4 6.0
2017-Dec-12 04:49N 44°28' E 037°29'1 2.4
2017-Dec-12 04:30N 44°28' E 037°30'3 2.1
2017-Dec-12 02:56N 44°25' E 037°32'1 2.1
2017-Dec-12 02:18N 44°24' E 037°33'1 2.0
2017-Dec-12 01:57N 44°23' E 037°33'2 2.2
2017-Dec-12 01:03N 44°21' E 037°34'0 2.1
2017-Dec-12 00:50N 44°21' E 037°35'1 3.2
2017-Dec-12 00:26N 44°22' E 037°36'1 3.2
2017-Dec-12 00:00N 44°23' E 037°37'2 3.0
2017-Dec-11 23:30N 44°25' E 037°39'1 3.0
2017-Dec-11 23:00N 44°26' E 037°40'1 2.0
2017-Dec-11 22:29N 44°27' E 037°40'1 2.5
2017-Dec-11 22:00N 44°26' E 037°39'1 2.4
2017-Dec-11 21:30N 44°25' E 037°39'1 2.3
2017-Dec-11 21:00N 44°24' E 037°38'1 2.3
2017-Dec-11 20:30N 44°23' E 037°37'1 1.4
2017-Dec-11 19:52N 44°22' E 037°36'2 5.5
2017-Dec-11 19:30N 44°24' E 037°35'3 5.8
2017-Dec-11 19:00N 44°27' E 037°34'1 1.6
2017-Dec-11 18:29N 44°27' E 037°35'1 1.9
2017-Dec-11 17:48N 44°26' E 037°35'1 1.9
2017-Dec-11 17:27N 44°25' E 037°36'1 1.9
2017-Dec-11 16:48N 44°24' E 037°36'1 1.8
2017-Dec-11 16:24N 44°23' E 037°36'1 1.3
2017-Dec-11 15:41N 44°22' E 037°36'1 0.6
2017-Dec-11 13:53N 44°21' E 037°37'2 3.8
2017-Dec-11 13:26N 44°22' E 037°39'3 4.0
2017-Dec-11 12:45N 44°24' E 037°40'1 3.9
2017-Dec-11 12:30N 44°25' E 037°41'2 3.1
2017-Dec-11 12:00N 44°27' E 037°42'1 1.8
2017-Dec-11 11:30N 44°26' E 037°43'1 1.7
2017-Dec-11 11:00N 44°25' E 037°42'1 1.9
2017-Dec-11 10:30N 44°24' E 037°41'1 1.8
2017-Dec-11 10:00N 44°23' E 037°40'1 1.8
2017-Dec-11 09:27N 44°23' E 037°40'1 1.4
2017-Dec-11 08:56N 44°22' E 037°39'2 4.1
2017-Dec-11 08:30N 44°22' E 037°42'3 6.7
2017-Dec-11 08:00N 44°22' E 037°46'4 3.4
2017-Dec-11 06:43N 44°21' E 037°52'0 1.7
2017-Dec-11 06:30N 44°21' E 037°52'2 1.4
2017-Dec-11 04:58N 44°20' E 037°49'1 1.6
2017-Dec-11 04:29N 44°20' E 037°48'1 1.9
2017-Dec-11 03:53N 44°21' E 037°46'1 1.9
2017-Dec-11 03:24N 44°21' E 037°45'1 2.5
2017-Dec-11 02:57N 44°21' E 037°44'3 5.2
2017-Dec-11 02:28N 44°21' E 037°40'1 3.2
2017-Dec-11 02:00N 44°22' E 037°39'3 3.2
2017-Dec-11 01:12N 44°23' E 037°42'1 4.4
2017-Dec-11 00:54N 44°22' E 037°44'2 4.4
2017-Dec-11 00:29N 44°21' E 037°46'2 3.5
2017-Dec-11 00:00N 44°20' E 037°48'1 1.1
2017-Dec-10 23:30N 44°20' E 037°48'1 2.4
2017-Dec-10 23:00N 44°21' E 037°47'1 2.3
2017-Dec-10 22:29N 44°21' E 037°45'1 2.3
2017-Dec-10 22:00N 44°22' E 037°44'1 2.1
2017-Dec-10 21:30N 44°22' E 037°42'1 1.9
2017-Dec-10 21:00N 44°22' E 037°41'2 1.7
2017-Dec-10 19:58N 44°22' E 037°39'1 1.4
2017-Dec-10 18:55N 44°22' E 037°37'1 2.7
2017-Dec-10 18:29N 44°22' E 037°35'6 7.4
2017-Dec-10 17:42N 44°24' E 037°27'6 6.7
2017-Dec-10 16:46N 44°27' E 037°20'2 5.8
2017-Dec-10 16:30N 44°27' E 037°18'3 1.2
2017-Dec-10 13:54N 44°26' E 037°22'1 2.4
2017-Dec-10 13:20N 44°25' E 037°23'1 2.3
2017-Dec-10 12:53N 44°25' E 037°24'1 2.2
2017-Dec-10 12:29N 44°25' E 037°26'1 2.3
2017-Dec-10 11:58N 44°24' E 037°27'2 2.2
2017-Dec-10 10:54N 44°23' E 037°30'1 2.2
2017-Dec-10 10:26N 44°23' E 037°32'1 2.1
2017-Dec-10 10:00N 44°22' E 037°33'1 2.1
2017-Dec-10 09:30N 44°22' E 037°34'1 2.0
2017-Dec-10 09:00N 44°22' E 037°35'1 1.9
2017-Dec-10 08:26N 44°21' E 037°37'1 2.3
2017-Dec-10 08:00N 44°22' E 037°37'3 2.1
2017-Dec-10 06:29N 44°25' E 037°40'1 2.0
2017-Dec-10 06:00N 44°24' E 037°39'1 2.0
2017-Dec-10 05:30N 44°23' E 037°39'1 1.9
2017-Dec-10 05:00N 44°22' E 037°38'1 1.9
2017-Dec-10 04:30N 44°21' E 037°38'1 1.5
2017-Dec-10 04:00N 44°21' E 037°37'3 5.6
2017-Dec-10 03:30N 44°23' E 037°34'3 6.6
2017-Dec-10 02:59N 44°27' E 037°33'1 2.3
2017-Dec-10 02:30N 44°27' E 037°32'1 2.0
2017-Dec-10 02:00N 44°26' E 037°31'1 2.0
2017-Dec-10 01:30N 44°25' E 037°31'1 2.0
2017-Dec-10 01:00N 44°24' E 037°30'1 1.9
2017-Dec-10 00:21N 44°23' E 037°30'1 1.8
2017-Dec-09 23:59N 44°22' E 037°30'1 1.7
2017-Dec-09 23:30N 44°22' E 037°30'1 1.6
2017-Dec-09 23:00N 44°21' E 037°29'4 0.4
2017-Dec-09 13:54N 44°24' E 037°27'1 1.6
2017-Dec-09 13:30N 44°23' E 037°27'1 1.7
2017-Dec-09 12:53N 44°22' E 037°28'1 1.7
2017-Dec-09 12:28N 44°22' E 037°28'1 1.8
2017-Dec-09 12:00N 44°21' E 037°29'0 0.8
2017-Dec-09 11:30N 44°21' E 037°30'2 4.8
2017-Dec-09 11:00N 44°23' E 037°30'2 4.6
2017-Dec-09 10:30N 44°26' E 037°30'2 3.1
2017-Dec-09 10:00N 44°27' E 037°30'1 2.1
2017-Dec-09 09:30N 44°28' E 037°31'1 1.9
2017-Dec-09 08:54N 44°27' E 037°32'1 2.0
2017-Dec-09 08:30N 44°26' E 037°32'1 2.0
2017-Dec-09 08:00N 44°25' E 037°33'1 2.0
2017-Dec-09 07:27N 44°25' E 037°34'4 5.2
2017-Dec-09 06:41N 44°27' E 037°39'1 2.4
2017-Dec-09 06:28N 44°27' E 037°39'1 1.6
2017-Dec-09 06:00N 44°26' E 037°38'1 2.4
2017-Dec-09 05:30N 44°27' E 037°37'0 0.9
2017-Dec-09 04:57N 44°27' E 037°37'1 1.5
2017-Dec-09 04:30N 44°26' E 037°37'1 1.5
2017-Dec-09 04:00N 44°26' E 037°37'1 1.5
2017-Dec-09 03:27N 44°25' E 037°37'1 3.1
2017-Dec-09 03:00N 44°23' E 037°38'3 6.2
2017-Dec-09 02:30N 44°21' E 037°40'3 5.1
2017-Dec-09 01:58N 44°19' E 037°43'2 5.0
2017-Dec-09 01:30N 44°18' E 037°46'2 4.9
2017-Dec-09 01:00N 44°17' E 037°49'3 4.9
2017-Dec-09 00:29N 44°16' E 037°53'3 4.9
2017-Dec-08 23:58N 44°15' E 037°56'2 5.0
2017-Dec-08 23:30N 44°15' E 037°59'1 2.3
2017-Dec-08 22:56N 44°15' E 038°01'4 1.9
2017-Dec-08 20:36N 44°16' E 037°55'0 2.0
2017-Dec-08 20:26N 44°16' E 037°54'1 2.0
2017-Dec-08 19:59N 44°16' E 037°53'1 2.1
2017-Dec-08 19:30N 44°17' E 037°52'2 2.2
2017-Dec-08 18:48N 44°17' E 037°50'1 2.3
2017-Dec-08 18:29N 44°18' E 037°49'1 2.3
2017-Dec-08 17:52N 44°18' E 037°47'1 2.1
2017-Dec-08 17:21N 44°18' E 037°45'1 2.1
2017-Dec-08 17:00N 44°19' E 037°45'1 2.1
2017-Dec-08 16:30N 44°19' E 037°43'4 2.1
2017-Dec-08 14:34N 44°20' E 037°38'0 2.1
2017-Dec-08 14:26N 44°20' E 037°37'2 1.5
2017-Dec-08 13:21N 44°20' E 037°40'2 3.8
2017-Dec-08 12:53N 44°19' E 037°41'1 3.7
2017-Dec-08 12:30N 44°17' E 037°43'2 4.1
2017-Dec-08 11:59N 44°16' E 037°45'2 4.3
2017-Dec-08 11:30N 44°14' E 037°46'2 4.3
2017-Dec-08 11:00N 44°13' E 037°48'2 4.5
2017-Dec-08 10:30N 44°11' E 037°50'11 1.0
2017-Dec-07 23:00N 44°20' E 037°41'2 1.5
2017-Dec-07 21:57N 44°21' E 037°42'3 6.0
2017-Dec-07 21:30N 44°22' E 037°45'3 5.5
2017-Dec-07 20:56N 44°23' E 037°50'1 2.2
2017-Dec-07 20:30N 44°22' E 037°49'1 2.1
2017-Dec-07 20:00N 44°22' E 037°47'1 2.1
2017-Dec-07 19:31N 44°22' E 037°46'1 1.7
2017-Dec-07 19:00N 44°22' E 037°45'1 2.1
2017-Dec-07 18:30N 44°22' E 037°43'1 1.9
2017-Dec-07 17:59N 44°21' E 037°42'1 2.0
2017-Dec-07 17:30N 44°21' E 037°40'1 1.9
2017-Dec-07 17:00N 44°21' E 037°39'0 0.4
2017-Dec-07 16:26N 44°21' E 037°39'2 5.7
2017-Dec-07 16:00N 44°20' E 037°42'3 5.7
2017-Dec-07 15:30N 44°18' E 037°44'3 5.5
2017-Dec-07 15:00N 44°16' E 037°47'3 5.2
2017-Dec-07 14:29N 44°14' E 037°50'3 4.8
2017-Dec-07 13:57N 44°12' E 037°52'2 4.8
2017-Dec-07 13:30N 44°11' E 037°55'2 4.6
2017-Dec-07 13:00N 44°09' E 037°56'3 0.6
2017-Dec-07 08:05N 44°10' E 037°53'0 1.7
2017-Dec-07 07:57N 44°10' E 037°53'1 1.7
2017-Dec-07 07:28N 44°11' E 037°52'1 1.6
2017-Dec-07 06:56N 44°12' E 037°52'1 1.4
2017-Dec-07 06:28N 44°12' E 037°51'1 1.5
2017-Dec-07 06:00N 44°13' E 037°50'  

Dump ship's entire track history